sensor_id;sensor_type;location;lat;lon;timestamp;pressure;altitude;pressure_sealevel;temperature;humidity
51926;BME280;37952;51.938;15.480;2023-05-09T00:00:43;100807.53;;;8.64;51.89
51926;BME280;37952;51.938;15.480;2023-05-09T00:03:48;100804.45;;;8.62;52.02
51926;BME280;37952;51.938;15.480;2023-05-09T00:06:53;100799.42;;;8.59;51.99
51926;BME280;37952;51.938;15.480;2023-05-09T00:09:56;100795.64;;;8.57;52.06
51926;BME280;37952;51.938;15.480;2023-05-09T00:12:59;100796.41;;;8.55;52.04
51926;BME280;37952;51.938;15.480;2023-05-09T00:16:02;100795.74;;;8.54;52.11
51926;BME280;37952;51.938;15.480;2023-05-09T00:19:05;100793.25;;;8.49;52.06
51926;BME280;37952;51.938;15.480;2023-05-09T00:22:09;100786.14;;;8.41;52.36
51926;BME280;37952;51.938;15.480;2023-05-09T00:25:14;100784.11;;;8.39;52.28
51926;BME280;37952;51.938;15.480;2023-05-09T00:28:17;100785.55;;;8.38;52.34
51926;BME280;37952;51.938;15.480;2023-05-09T00:31:21;100786.94;;;8.34;52.62
51926;BME280;37952;51.938;15.480;2023-05-09T00:34:24;100784.16;;;8.28;52.50
51926;BME280;37952;51.938;15.480;2023-05-09T00:37:28;100785.73;;;8.23;52.53
51926;BME280;37952;51.938;15.480;2023-05-09T00:40:31;100779.00;;;8.19;52.48
51926;BME280;37952;51.938;15.480;2023-05-09T00:43:34;100778.26;;;8.15;52.62
51926;BME280;37952;51.938;15.480;2023-05-09T00:46:37;100776.79;;;8.12;52.60
51926;BME280;37952;51.938;15.480;2023-05-09T00:49:41;100776.95;;;8.07;52.89
51926;BME280;37952;51.938;15.480;2023-05-09T00:52:44;100774.11;;;8.03;52.99
51926;BME280;37952;51.938;15.480;2023-05-09T00:55:47;100771.34;;;8.01;53.06
51926;BME280;37952;51.938;15.480;2023-05-09T00:58:50;100774.45;;;7.97;52.97
51926;BME280;37952;51.938;15.480;2023-05-09T01:01:53;100767.46;;;7.91;53.07
51926;BME280;37952;51.938;15.480;2023-05-09T01:04:56;100773.25;;;7.91;53.11
51926;BME280;37952;51.938;15.480;2023-05-09T01:08:06;100768.96;;;7.88;53.26
51926;BME280;37952;51.938;15.480;2023-05-09T01:15:09;100765.50;;;7.81;53.38
51926;BME280;37952;51.938;15.480;2023-05-09T01:21:29;100760.98;;;7.75;53.62
51926;BME280;37952;51.938;15.480;2023-05-09T01:24:48;100765.11;;;7.71;53.64
51926;BME280;37952;51.938;15.480;2023-05-09T01:28:13;100758.59;;;7.67;53.59
51926;BME280;37952;51.938;15.480;2023-05-09T01:31:18;100759.75;;;7.64;53.69
51926;BME280;37952;51.938;15.480;2023-05-09T01:34:25;100757.13;;;7.64;53.83
51926;BME280;37952;51.938;15.480;2023-05-09T01:37:30;100757.69;;;7.62;53.91
51926;BME280;37952;51.938;15.480;2023-05-09T01:40:33;100752.59;;;7.57;54.05
51926;BME280;37952;51.938;15.480;2023-05-09T01:43:37;100752.48;;;7.55;54.34
51926;BME280;37952;51.938;15.480;2023-05-09T01:46:43;100756.10;;;7.52;54.54
51926;BME280;37952;51.938;15.480;2023-05-09T01:49:46;100755.09;;;7.44;54.77
51926;BME280;37952;51.938;15.480;2023-05-09T01:52:52;100751.41;;;7.39;54.95
51926;BME280;37952;51.938;15.480;2023-05-09T01:55:57;100746.06;;;7.36;54.92
51926;BME280;37952;51.938;15.480;2023-05-09T01:59:01;100742.89;;;7.36;55.03
51926;BME280;37952;51.938;15.480;2023-05-09T02:02:05;100741.10;;;7.37;55.13
51926;BME280;37952;51.938;15.480;2023-05-09T02:05:10;100739.03;;;7.36;55.24
51926;BME280;37952;51.938;15.480;2023-05-09T02:08:13;100737.16;;;7.34;55.31
51926;BME280;37952;51.938;15.480;2023-05-09T02:11:16;100727.02;;;7.34;55.27
51926;BME280;37952;51.938;15.480;2023-05-09T02:14:19;100726.30;;;7.34;55.33
51926;BME280;37952;51.938;15.480;2023-05-09T02:17:22;100723.15;;;7.34;55.25
51926;BME280;37952;51.938;15.480;2023-05-09T02:20:24;100719.86;;;7.33;55.33
51926;BME280;37952;51.938;15.480;2023-05-09T02:23:27;100718.31;;;7.31;55.48
51926;BME280;37952;51.938;15.480;2023-05-09T02:26:30;100717.53;;;7.29;55.69
51926;BME280;37952;51.938;15.480;2023-05-09T02:29:34;100713.02;;;7.27;55.57
51926;BME280;37952;51.938;15.480;2023-05-09T02:32:42;100707.98;;;7.25;55.64
51926;BME280;37952;51.938;15.480;2023-05-09T02:35:46;100707.11;;;7.20;55.61
51926;BME280;37952;51.938;15.480;2023-05-09T02:38:50;100704.18;;;7.17;55.80
51926;BME280;37952;51.938;15.480;2023-05-09T02:41:52;100705.88;;;7.14;55.88
51926;BME280;37952;51.938;15.480;2023-05-09T02:44:55;100703.33;;;7.11;55.93
51926;BME280;37952;51.938;15.480;2023-05-09T02:47:58;100703.78;;;7.08;56.02
51926;BME280;37952;51.938;15.480;2023-05-09T02:51:01;100699.48;;;7.06;55.93
51926;BME280;37952;51.938;15.480;2023-05-09T02:54:04;100698.45;;;7.04;56.08
51926;BME280;37952;51.938;15.480;2023-05-09T02:57:07;100698.94;;;7.00;56.12
51926;BME280;37952;51.938;15.480;2023-05-09T03:00:10;100694.80;;;6.97;56.23
51926;BME280;37952;51.938;15.480;2023-05-09T03:03:13;100693.85;;;6.94;56.35
51926;BME280;37952;51.938;15.480;2023-05-09T03:06:17;100696.59;;;6.91;56.41
51926;BME280;37952;51.938;15.480;2023-05-09T03:09:19;100699.27;;;6.89;56.47
51926;BME280;37952;51.938;15.480;2023-05-09T03:12:22;100696.20;;;6.86;56.48
51926;BME280;37952;51.938;15.480;2023-05-09T03:15:25;100702.44;;;6.83;56.80
51926;BME280;37952;51.938;15.480;2023-05-09T03:18:28;100698.71;;;6.78;56.81
51926;BME280;37952;51.938;15.480;2023-05-09T03:21:30;100694.23;;;6.76;57.02
51926;BME280;37952;51.938;15.480;2023-05-09T03:24:33;100698.20;;;6.72;56.97
51926;BME280;37952;51.938;15.480;2023-05-09T03:27:36;100694.95;;;6.70;57.05
51926;BME280;37952;51.938;15.480;2023-05-09T03:30:38;100697.45;;;6.68;57.20
51926;BME280;37952;51.938;15.480;2023-05-09T03:33:41;100693.27;;;6.67;57.16
51926;BME280;37952;51.938;15.480;2023-05-09T03:36:44;100691.02;;;6.66;57.29
51926;BME280;37952;51.938;15.480;2023-05-09T03:39:46;100690.63;;;6.61;57.53
51926;BME280;37952;51.938;15.480;2023-05-09T03:42:49;100690.67;;;6.59;57.45
51926;BME280;37952;51.938;15.480;2023-05-09T03:45:51;100690.89;;;6.58;57.38
51926;BME280;37952;51.938;15.480;2023-05-09T03:48:54;100694.08;;;6.57;57.62
51926;BME280;37952;51.938;15.480;2023-05-09T03:51:57;100693.26;;;6.55;57.72
51926;BME280;37952;51.938;15.480;2023-05-09T03:55:00;100680.93;;;6.45;57.82
51926;BME280;37952;51.938;15.480;2023-05-09T03:58:02;100698.58;;;6.53;57.83
51926;BME280;37952;51.938;15.480;2023-05-09T04:01:05;100702.98;;;6.52;58.16
51926;BME280;37952;51.938;15.480;2023-05-09T04:04:08;100701.59;;;6.51;58.84
51926;BME280;37952;51.938;15.480;2023-05-09T04:07:11;100702.50;;;6.56;58.62
51926;BME280;37952;51.938;15.480;2023-05-09T04:10:14;100695.19;;;6.60;58.43
51926;BME280;37952;51.938;15.480;2023-05-09T04:13:16;100694.00;;;6.65;58.38
51926;BME280;37952;51.938;15.480;2023-05-09T04:16:19;100694.09;;;6.69;58.35
51926;BME280;37952;51.938;15.480;2023-05-09T04:19:22;100695.42;;;6.71;58.20
51926;BME280;37952;51.938;15.480;2023-05-09T04:22:25;100695.36;;;6.73;58.27
51926;BME280;37952;51.938;15.480;2023-05-09T04:25:27;100693.21;;;6.74;58.32
51926;BME280;37952;51.938;15.480;2023-05-09T04:28:30;100692.16;;;6.75;58.51
51926;BME280;37952;51.938;15.480;2023-05-09T04:31:33;100691.73;;;6.78;58.65
51926;BME280;37952;51.938;15.480;2023-05-09T04:34:36;100695.34;;;6.80;58.64
51926;BME280;37952;51.938;15.480;2023-05-09T04:37:39;100696.11;;;6.83;58.62
51926;BME280;37952;51.938;15.480;2023-05-09T04:40:42;100698.63;;;6.87;58.65
51926;BME280;37952;51.938;15.480;2023-05-09T04:43:44;100700.33;;;6.89;58.73
51926;BME280;37952;51.938;15.480;2023-05-09T04:46:47;100697.11;;;6.91;58.58
51926;BME280;37952;51.938;15.480;2023-05-09T04:49:52;100699.00;;;6.92;58.84
51926;BME280;37952;51.938;15.480;2023-05-09T04:52:54;100705.28;;;6.93;58.83
51926;BME280;37952;51.938;15.480;2023-05-09T04:55:57;100701.89;;;6.95;58.91
51926;BME280;37952;51.938;15.480;2023-05-09T04:58:59;100699.56;;;6.97;58.91
51926;BME280;37952;51.938;15.480;2023-05-09T05:02:02;100696.49;;;7.00;58.90
51926;BME280;37952;51.938;15.480;2023-05-09T05:05:05;100693.27;;;7.02;58.93
51926;BME280;37952;51.938;15.480;2023-05-09T05:08:13;100690.72;;;7.05;59.03
51926;BME280;37952;51.938;15.480;2023-05-09T05:11:16;100695.55;;;7.08;58.88
51926;BME280;37952;51.938;15.480;2023-05-09T05:14:23;100695.88;;;7.14;58.93
51926;BME280;37952;51.938;15.480;2023-05-09T05:17:25;100696.73;;;7.21;58.89
51926;BME280;37952;51.938;15.480;2023-05-09T05:20:31;100698.56;;;7.23;58.91
51926;BME280;37952;51.938;15.480;2023-05-09T05:23:34;100697.23;;;7.27;58.99
51926;BME280;37952;51.938;15.480;2023-05-09T05:26:36;100696.98;;;7.30;58.95
51926;BME280;37952;51.938;15.480;2023-05-09T05:29:39;100698.09;;;7.33;58.90
51926;BME280;37952;51.938;15.480;2023-05-09T05:32:42;100700.05;;;7.38;58.99
51926;BME280;37952;51.938;15.480;2023-05-09T05:35:45;100693.59;;;7.43;58.91
51926;BME280;37952;51.938;15.480;2023-05-09T05:38:48;100694.30;;;7.47;58.81
51926;BME280;37952;51.938;15.480;2023-05-09T05:41:50;100692.90;;;7.53;58.75
51926;BME280;37952;51.938;15.480;2023-05-09T05:44:54;100689.61;;;7.57;58.84
51926;BME280;37952;51.938;15.480;2023-05-09T05:47:57;100700.48;;;7.63;58.69
51926;BME280;37952;51.938;15.480;2023-05-09T05:50:59;100695.14;;;7.70;58.63
51926;BME280;37952;51.938;15.480;2023-05-09T05:54:02;100692.42;;;7.78;58.57
51926;BME280;37952;51.938;15.480;2023-05-09T05:57:05;100689.13;;;7.87;58.73
51926;BME280;37952;51.938;15.480;2023-05-09T06:00:10;100691.30;;;7.96;58.66
51926;BME280;37952;51.938;15.480;2023-05-09T06:03:13;100695.05;;;8.04;58.52
51926;BME280;37952;51.938;15.480;2023-05-09T06:06:16;100685.98;;;8.12;58.45
51926;BME280;37952;51.938;15.480;2023-05-09T06:09:18;100689.38;;;8.20;58.23
51926;BME280;37952;51.938;15.480;2023-05-09T06:12:21;100690.10;;;8.25;58.05
51926;BME280;37952;51.938;15.480;2023-05-09T06:15:23;100684.77;;;8.32;57.79
51926;BME280;37952;51.938;15.480;2023-05-09T06:18:26;100687.36;;;8.38;57.55
51926;BME280;37952;51.938;15.480;2023-05-09T06:21:29;100688.13;;;8.41;57.41
51926;BME280;37952;51.938;15.480;2023-05-09T06:24:31;100691.52;;;8.44;57.35
51926;BME280;37952;51.938;15.480;2023-05-09T06:27:38;100686.86;;;8.46;57.23
51926;BME280;37952;51.938;15.480;2023-05-09T06:30:40;100681.58;;;8.52;57.23
51926;BME280;37952;51.938;15.480;2023-05-09T06:33:43;100675.37;;;8.59;57.19
51926;BME280;37952;51.938;15.480;2023-05-09T06:36:45;100680.72;;;8.66;57.01
51926;BME280;37952;51.938;15.480;2023-05-09T06:39:48;100680.81;;;8.73;56.65
51926;BME280;37952;51.938;15.480;2023-05-09T06:42:52;100675.52;;;8.78;56.35
51926;BME280;37952;51.938;15.480;2023-05-09T06:45:55;100675.09;;;8.85;56.44
51926;BME280;37952;51.938;15.480;2023-05-09T06:48:57;100675.91;;;8.91;56.33
51926;BME280;37952;51.938;15.480;2023-05-09T06:52:03;100665.95;;;8.99;56.37
51926;BME280;37952;51.938;15.480;2023-05-09T06:55:06;100663.51;;;9.03;56.22
51926;BME280;37952;51.938;15.480;2023-05-09T06:58:09;100661.67;;;9.09;56.19
51926;BME280;37952;51.938;15.480;2023-05-09T07:01:13;100657.13;;;9.18;55.99
51926;BME280;37952;51.938;15.480;2023-05-09T07:04:16;100655.29;;;9.24;56.04
51926;BME280;37952;51.938;15.480;2023-05-09T07:07:18;100652.74;;;9.30;55.60
51926;BME280;37952;51.938;15.480;2023-05-09T07:10:21;100643.98;;;9.38;55.19
51926;BME280;37952;51.938;15.480;2023-05-09T07:13:23;100639.68;;;9.44;54.80
51926;BME280;37952;51.938;15.480;2023-05-09T07:16:26;100635.23;;;9.50;54.37
51926;BME280;37952;51.938;15.480;2023-05-09T07:19:30;100637.58;;;9.53;54.39
51926;BME280;37952;51.938;15.480;2023-05-09T07:22:33;100625.78;;;9.57;54.02
51926;BME280;37952;51.938;15.480;2023-05-09T07:25:39;100622.20;;;9.62;53.20
51926;BME280;37952;51.938;15.480;2023-05-09T07:28:41;100620.82;;;9.70;53.31
51926;BME280;37952;51.938;15.480;2023-05-09T07:31:44;100617.34;;;9.77;53.14
51926;BME280;37952;51.938;15.480;2023-05-09T07:34:47;100618.83;;;9.84;53.27
51926;BME280;37952;51.938;15.480;2023-05-09T07:37:50;100613.23;;;9.91;52.97
51926;BME280;37952;51.938;15.480;2023-05-09T07:40:52;100611.74;;;9.97;52.81
51926;BME280;37952;51.938;15.480;2023-05-09T07:43:55;100613.02;;;10.04;52.98
51926;BME280;37952;51.938;15.480;2023-05-09T07:46:58;100601.02;;;10.12;52.70
51926;BME280;37952;51.938;15.480;2023-05-09T07:50:01;100592.88;;;10.25;52.35
51926;BME280;37952;51.938;15.480;2023-05-09T07:53:04;100596.42;;;10.32;50.76
51926;BME280;37952;51.938;15.480;2023-05-09T07:56:06;100587.54;;;10.38;51.23
51926;BME280;37952;51.938;15.480;2023-05-09T07:59:09;100583.84;;;10.41;51.11
51926;BME280;37952;51.938;15.480;2023-05-09T08:02:12;100582.95;;;10.41;51.20
51926;BME280;37952;51.938;15.480;2023-05-09T08:05:14;100588.74;;;10.46;50.62
51926;BME280;37952;51.938;15.480;2023-05-09T08:08:18;100580.39;;;10.52;49.44
51926;BME280;37952;51.938;15.480;2023-05-09T08:11:20;100581.27;;;10.56;48.97
51926;BME280;37952;51.938;15.480;2023-05-09T08:14:23;100576.59;;;10.61;49.09
51926;BME280;37952;51.938;15.480;2023-05-09T08:17:26;100569.95;;;10.68;48.56
51926;BME280;37952;51.938;15.480;2023-05-09T08:20:28;100570.25;;;10.73;48.98
51926;BME280;37952;51.938;15.480;2023-05-09T08:23:33;100570.23;;;10.80;49.81
51926;BME280;37952;51.938;15.480;2023-05-09T08:26:36;100561.48;;;10.90;49.84
51926;BME280;37952;51.938;15.480;2023-05-09T08:29:39;100557.52;;;10.95;49.58
51926;BME280;37952;51.938;15.480;2023-05-09T08:32:42;100554.30;;;11.00;49.84
51926;BME280;37952;51.938;15.480;2023-05-09T08:35:49;100543.11;;;11.05;48.41
51926;BME280;37952;51.938;15.480;2023-05-09T08:38:52;100544.14;;;11.12;48.50
51926;BME280;37952;51.938;15.480;2023-05-09T08:41:58;100543.47;;;11.23;48.32
51926;BME280;37952;51.938;15.480;2023-05-09T08:45:12;100538.61;;;11.31;47.14
51926;BME280;37952;51.938;15.480;2023-05-09T08:48:18;100535.05;;;11.35;47.25
51926;BME280;37952;51.938;15.480;2023-05-09T08:51:20;100530.71;;;11.41;47.61
51926;BME280;37952;51.938;15.480;2023-05-09T08:54:25;100534.39;;;11.45;46.52
51926;BME280;37952;51.938;15.480;2023-05-09T08:57:31;100536.11;;;11.53;47.11
51926;BME280;37952;51.938;15.480;2023-05-09T09:00:36;100529.08;;;11.56;45.70
51926;BME280;37952;51.938;15.480;2023-05-09T09:03:41;100524.95;;;11.60;45.92
51926;BME280;37952;51.938;15.480;2023-05-09T09:06:50;100514.96;;;11.65;45.88
51926;BME280;37952;51.938;15.480;2023-05-09T09:09:54;100517.77;;;11.76;46.10
51926;BME280;37952;51.938;15.480;2023-05-09T09:13:00;100519.12;;;11.87;45.98
51926;BME280;37952;51.938;15.480;2023-05-09T09:16:06;100511.09;;;11.98;46.19
51926;BME280;37952;51.938;15.480;2023-05-09T09:19:12;100505.63;;;12.08;45.88
51926;BME280;37952;51.938;15.480;2023-05-09T09:22:17;100502.16;;;12.17;45.37
51926;BME280;37952;51.938;15.480;2023-05-09T09:25:20;100501.87;;;12.26;46.49
51926;BME280;37952;51.938;15.480;2023-05-09T09:28:23;100502.38;;;12.29;46.35
51926;BME280;37952;51.938;15.480;2023-05-09T09:31:29;100498.33;;;12.32;45.43
51926;BME280;37952;51.938;15.480;2023-05-09T09:34:33;100499.86;;;12.36;45.12
51926;BME280;37952;51.938;15.480;2023-05-09T09:37:37;100501.87;;;12.42;45.08
51926;BME280;37952;51.938;15.480;2023-05-09T09:43:55;100501.65;;;12.46;44.30
51926;BME280;37952;51.938;15.480;2023-05-09T09:47:00;100496.23;;;12.48;44.30
51926;BME280;37952;51.938;15.480;2023-05-09T09:50:13;100493.10;;;12.53;44.83
51926;BME280;37952;51.938;15.480;2023-05-09T09:53:19;100479.55;;;12.67;45.55
51926;BME280;37952;51.938;15.480;2023-05-09T09:56:37;100473.44;;;12.69;44.40
51926;BME280;37952;51.938;15.480;2023-05-09T09:59:40;100478.70;;;12.73;44.14
51926;BME280;37952;51.938;15.480;2023-05-09T10:02:54;100463.25;;;12.80;43.66
51926;BME280;37952;51.938;15.480;2023-05-09T10:06:00;100457.77;;;12.86;43.77
51926;BME280;37952;51.938;15.480;2023-05-09T10:09:03;100452.75;;;12.99;43.73
51926;BME280;37952;51.938;15.480;2023-05-09T10:12:07;100446.73;;;13.02;43.68
51926;BME280;37952;51.938;15.480;2023-05-09T10:15:11;100450.27;;;13.17;44.70
51926;BME280;37952;51.938;15.480;2023-05-09T10:18:16;100447.98;;;13.32;43.90
51926;BME280;37952;51.938;15.480;2023-05-09T10:21:21;100450.20;;;13.30;42.61
51926;BME280;37952;51.938;15.480;2023-05-09T10:24:33;100438.70;;;13.31;43.07
51926;BME280;37952;51.938;15.480;2023-05-09T10:27:37;100426.50;;;13.36;43.08
51926;BME280;37952;51.938;15.480;2023-05-09T10:30:57;100436.20;;;13.45;42.88
51926;BME280;37952;51.938;15.480;2023-05-09T10:34:04;100430.52;;;13.51;42.40
51926;BME280;37952;51.938;15.480;2023-05-09T10:37:11;100434.70;;;13.59;42.56
51926;BME280;37952;51.938;15.480;2023-05-09T10:40:14;100431.02;;;13.72;42.30
51926;BME280;37952;51.938;15.480;2023-05-09T10:43:17;100424.48;;;13.80;41.76
51926;BME280;37952;51.938;15.480;2023-05-09T10:46:21;100416.85;;;13.86;41.62
51926;BME280;37952;51.938;15.480;2023-05-09T10:49:25;100415.65;;;13.91;41.47
51926;BME280;37952;51.938;15.480;2023-05-09T10:52:31;100410.00;;;13.94;41.51
51926;BME280;37952;51.938;15.480;2023-05-09T10:55:46;100402.80;;;14.01;41.66
51926;BME280;37952;51.938;15.480;2023-05-09T10:58:49;100390.30;;;14.10;41.28
51926;BME280;37952;51.938;15.480;2023-05-09T11:01:56;100394.77;;;14.19;41.43
51926;BME280;37952;51.938;15.480;2023-05-09T11:05:16;100383.65;;;14.26;41.34
51926;BME280;37952;51.938;15.480;2023-05-09T11:08:21;100382.80;;;14.33;40.46
51926;BME280;37952;51.938;15.480;2023-05-09T11:11:24;100375.49;;;14.40;40.58
51926;BME280;37952;51.938;15.480;2023-05-09T11:14:32;100376.80;;;14.46;40.45
51926;BME280;37952;51.938;15.480;2023-05-09T11:17:42;100367.58;;;14.49;40.23
51926;BME280;37952;51.938;15.480;2023-05-09T11:20:47;100361.55;;;14.54;40.54
51926;BME280;37952;51.938;15.480;2023-05-09T11:23:50;100360.99;;;14.62;40.76
51926;BME280;37952;51.938;15.480;2023-05-09T11:26:56;100352.48;;;14.68;40.51
51926;BME280;37952;51.938;15.480;2023-05-09T11:30:03;100349.65;;;14.75;40.70
51926;BME280;37952;51.938;15.480;2023-05-09T11:33:23;100340.42;;;14.81;40.05
51926;BME280;37952;51.938;15.480;2023-05-09T11:36:29;100336.44;;;14.85;39.30
51926;BME280;37952;51.938;15.480;2023-05-09T11:39:54;100330.67;;;14.92;39.47
51926;BME280;37952;51.938;15.480;2023-05-09T11:42:57;100325.28;;;14.97;39.53
51926;BME280;37952;51.938;15.480;2023-05-09T11:46:01;100316.34;;;15.04;39.32
51926;BME280;37952;51.938;15.480;2023-05-09T11:49:07;100320.23;;;15.11;39.59
51926;BME280;37952;51.938;15.480;2023-05-09T11:52:13;100315.59;;;15.24;38.83
51926;BME280;37952;51.938;15.480;2023-05-09T11:55:17;100315.48;;;15.33;39.56
51926;BME280;37952;51.938;15.480;2023-05-09T11:58:21;100311.41;;;15.48;40.68
51926;BME280;37952;51.938;15.480;2023-05-09T12:01:24;100295.00;;;15.66;40.66
51926;BME280;37952;51.938;15.480;2023-05-09T12:04:29;100295.33;;;15.84;39.77
51926;BME280;37952;51.938;15.480;2023-05-09T12:07:31;100285.71;;;15.89;39.05
51926;BME280;37952;51.938;15.480;2023-05-09T12:10:38;100283.08;;;15.95;39.09
51926;BME280;37952;51.938;15.480;2023-05-09T12:13:46;100268.55;;;16.05;38.95
51926;BME280;37952;51.938;15.480;2023-05-09T12:16:49;100263.29;;;16.06;38.83
51926;BME280;37952;51.938;15.480;2023-05-09T12:19:52;100260.70;;;16.15;39.09
51926;BME280;37952;51.938;15.480;2023-05-09T12:22:55;100263.37;;;16.17;38.61
51926;BME280;37952;51.938;15.480;2023-05-09T12:25:58;100257.30;;;16.24;39.21
51926;BME280;37952;51.938;15.480;2023-05-09T12:29:00;100258.23;;;16.31;38.40
51926;BME280;37952;51.938;15.480;2023-05-09T12:32:03;100256.41;;;16.39;38.17
51926;BME280;37952;51.938;15.480;2023-05-09T12:35:08;100248.64;;;16.45;37.43
51926;BME280;37952;51.938;15.480;2023-05-09T12:38:21;100249.27;;;16.45;37.59
51926;BME280;37952;51.938;15.480;2023-05-09T12:41:24;100243.03;;;16.48;37.20
51926;BME280;37952;51.938;15.480;2023-05-09T12:44:30;100244.63;;;16.46;37.69
51926;BME280;37952;51.938;15.480;2023-05-09T12:47:33;100234.33;;;16.48;38.21
51926;BME280;37952;51.938;15.480;2023-05-09T12:50:35;100224.96;;;16.61;38.25
51926;BME280;37952;51.938;15.480;2023-05-09T12:53:40;100231.54;;;16.70;37.76
51926;BME280;37952;51.938;15.480;2023-05-09T12:56:43;100221.23;;;16.72;37.45
51926;BME280;37952;51.938;15.480;2023-05-09T12:59:46;100218.02;;;16.75;37.52
51926;BME280;37952;51.938;15.480;2023-05-09T13:02:49;100220.73;;;16.83;37.75
51926;BME280;37952;51.938;15.480;2023-05-09T13:05:59;100210.01;;;16.95;37.80
51926;BME280;37952;51.938;15.480;2023-05-09T13:09:03;100209.73;;;17.05;37.70
51926;BME280;37952;51.938;15.480;2023-05-09T13:12:09;100205.36;;;17.13;37.26
51926;BME280;37952;51.938;15.480;2023-05-09T13:15:12;100199.34;;;17.17;37.08
51926;BME280;37952;51.938;15.480;2023-05-09T13:18:16;100194.16;;;17.20;36.85
51926;BME280;37952;51.938;15.480;2023-05-09T13:21:19;100184.05;;;17.22;36.66
51926;BME280;37952;51.938;15.480;2023-05-09T13:24:22;100177.58;;;17.22;36.31
51926;BME280;37952;51.938;15.480;2023-05-09T13:27:25;100174.59;;;17.33;36.82
51926;BME280;37952;51.938;15.480;2023-05-09T13:30:29;100167.82;;;17.45;37.28
51926;BME280;37952;51.938;15.480;2023-05-09T13:33:32;100162.71;;;17.79;37.75
51926;BME280;37952;51.938;15.480;2023-05-09T13:36:35;100168.28;;;18.23;37.01
51926;BME280;37952;51.938;15.480;2023-05-09T13:39:38;100154.44;;;18.56;36.25
51926;BME280;37952;51.938;15.480;2023-05-09T13:42:40;100144.51;;;18.61;36.02
51926;BME280;37952;51.938;15.480;2023-05-09T13:45:43;100135.48;;;18.50;35.75
51926;BME280;37952;51.938;15.480;2023-05-09T13:48:46;100130.96;;;18.50;35.88
51926;BME280;37952;51.938;15.480;2023-05-09T13:51:49;100129.67;;;18.59;36.03
51926;BME280;37952;51.938;15.480;2023-05-09T13:54:52;100121.50;;;18.79;36.01
51926;BME280;37952;51.938;15.480;2023-05-09T13:57:55;100120.42;;;18.93;35.34
51926;BME280;37952;51.938;15.480;2023-05-09T14:00:57;100111.93;;;19.13;35.39
51926;BME280;37952;51.938;15.480;2023-05-09T14:04:00;100109.41;;;19.35;35.00
51926;BME280;37952;51.938;15.480;2023-05-09T14:07:04;100100.55;;;19.59;34.49
51926;BME280;37952;51.938;15.480;2023-05-09T14:10:07;100101.26;;;19.70;34.20
51926;BME280;37952;51.938;15.480;2023-05-09T14:13:13;100100.02;;;19.91;34.35
51926;BME280;37952;51.938;15.480;2023-05-09T14:16:20;100088.17;;;20.15;33.96
51926;BME280;37952;51.938;15.480;2023-05-09T14:19:25;100087.02;;;20.29;32.79
51926;BME280;37952;51.938;15.480;2023-05-09T14:22:31;100078.30;;;20.23;31.76
51926;BME280;37952;51.938;15.480;2023-05-09T14:25:34;100080.54;;;20.16;32.49
51926;BME280;37952;51.938;15.480;2023-05-09T14:28:36;100086.38;;;20.34;32.71
51926;BME280;37952;51.938;15.480;2023-05-09T14:31:39;100081.09;;;20.50;32.29
51926;BME280;37952;51.938;15.480;2023-05-09T14:34:42;100077.77;;;20.58;32.10
51926;BME280;37952;51.938;15.480;2023-05-09T14:37:46;100075.69;;;20.70;32.73
51926;BME280;37952;51.938;15.480;2023-05-09T14:40:48;100071.22;;;20.96;32.06
51926;BME280;37952;51.938;15.480;2023-05-09T14:43:51;100064.75;;;21.07;31.68
51926;BME280;37952;51.938;15.480;2023-05-09T14:46:54;100058.27;;;21.27;31.71
51926;BME280;37952;51.938;15.480;2023-05-09T14:49:57;100057.76;;;21.34;31.09
51926;BME280;37952;51.938;15.480;2023-05-09T14:53:00;100057.94;;;21.32;30.08
51926;BME280;37952;51.938;15.480;2023-05-09T14:56:04;100048.98;;;21.21;30.30
51926;BME280;37952;51.938;15.480;2023-05-09T14:59:07;100047.46;;;21.20;29.66
51926;BME280;37952;51.938;15.480;2023-05-09T15:02:11;100038.42;;;21.29;30.78
51926;BME280;37952;51.938;15.480;2023-05-09T15:05:13;100041.76;;;21.40;30.54
51926;BME280;37952;51.938;15.480;2023-05-09T15:08:17;100044.34;;;21.55;31.23
51926;BME280;37952;51.938;15.480;2023-05-09T15:11:20;100042.91;;;21.69;29.85
51926;BME280;37952;51.938;15.480;2023-05-09T15:14:23;100034.44;;;21.52;29.30
51926;BME280;37952;51.938;15.480;2023-05-09T15:17:26;100028.41;;;21.35;28.99
51926;BME280;37952;51.938;15.480;2023-05-09T15:20:28;100023.86;;;21.38;29.40
51926;BME280;37952;51.938;15.480;2023-05-09T15:23:31;100022.06;;;21.47;29.45
51926;BME280;37952;51.938;15.480;2023-05-09T15:26:34;100008.92;;;21.47;28.96
51926;BME280;37952;51.938;15.480;2023-05-09T15:29:37;100011.45;;;21.45;29.70
51926;BME280;37952;51.938;15.480;2023-05-09T15:32:40;100008.01;;;21.46;29.52
51926;BME280;37952;51.938;15.480;2023-05-09T15:35:43;100012.98;;;21.46;30.10
51926;BME280;37952;51.938;15.480;2023-05-09T15:38:46;100007.11;;;21.60;29.86
51926;BME280;37952;51.938;15.480;2023-05-09T15:41:51;99998.20;;;21.84;28.91
51926;BME280;37952;51.938;15.480;2023-05-09T15:44:54;99994.39;;;22.25;28.41
51926;BME280;37952;51.938;15.480;2023-05-09T15:47:57;99980.98;;;22.81;27.60
51926;BME280;37952;51.938;15.480;2023-05-09T15:51:00;99978.33;;;23.28;27.60
51926;BME280;37952;51.938;15.480;2023-05-09T15:54:04;99977.14;;;23.89;27.37
51926;BME280;37952;51.938;15.480;2023-05-09T15:57:06;99971.87;;;24.41;26.63
51926;BME280;37952;51.938;15.480;2023-05-09T16:00:10;99968.73;;;24.75;26.34
51926;BME280;37952;51.938;15.480;2023-05-09T16:03:13;99971.98;;;25.31;26.05
51926;BME280;37952;51.938;15.480;2023-05-09T16:06:17;99965.83;;;25.58;25.36